sensor_id;sensor_type;location;lat;lon;timestamp;P1;durP1;ratioP1;P2;durP2;ratioP2
20336;SDS011;10326;53.660;10.200;2023-11-22T00:02:17;3.40;;;3.10;;
20336;SDS011;10326;53.660;10.200;2023-11-22T00:04:45;2.72;;;2.53;;
20336;SDS011;10326;53.660;10.200;2023-11-22T00:07:12;3.50;;;2.73;;
20336;SDS011;10326;53.660;10.200;2023-11-22T00:09:39;3.13;;;2.70;;
20336;SDS011;10326;53.660;10.200;2023-11-22T00:12:08;3.28;;;2.50;;
20336;SDS011;10326;53.660;10.200;2023-11-22T00:14:36;2.90;;;2.55;;
20336;SDS011;10326;53.660;10.200;2023-11-22T00:17:03;5.25;;;2.90;;
20336;SDS011;10326;53.660;10.200;2023-11-22T00:19:31;3.20;;;2.90;;
20336;SDS011;10326;53.660;10.200;2023-11-22T00:21:58;2.80;;;2.60;;
20336;SDS011;10326;53.660;10.200;2023-11-22T00:24:28;3.03;;;2.80;;
20336;SDS011;10326;53.660;10.200;2023-11-22T00:26:55;3.83;;;2.67;;
20336;SDS011;10326;53.660;10.200;2023-11-22T00:29:23;2.72;;;2.53;;
20336;SDS011;10326;53.660;10.200;2023-11-22T00:31:51;3.33;;;2.83;;
20336;SDS011;10326;53.660;10.200;2023-11-22T00:34:18;3.10;;;2.80;;
20336;SDS011;10326;53.660;10.200;2023-11-22T00:36:45;4.60;;;2.90;;
20336;SDS011;10326;53.660;10.200;2023-11-22T00:39:15;3.13;;;2.83;;
20336;SDS011;10326;53.660;10.200;2023-11-22T00:41:42;3.45;;;3.00;;
20336;SDS011;10326;53.660;10.200;2023-11-22T00:44:11;3.37;;;3.07;;
20336;SDS011;10326;53.660;10.200;2023-11-22T00:46:39;3.57;;;3.00;;
20336;SDS011;10326;53.660;10.200;2023-11-22T00:49:07;3.33;;;3.03;;
20336;SDS011;10326;53.660;10.200;2023-11-22T00:51:34;6.50;;;3.30;;
20336;SDS011;10326;53.660;10.200;2023-11-22T00:54:01;2.77;;;2.57;;
20336;SDS011;10326;53.660;10.200;2023-11-22T00:56:29;2.60;;;2.38;;
20336;SDS011;10326;53.660;10.200;2023-11-22T00:58:56;3.10;;;2.80;;
20336;SDS011;10326;53.660;10.200;2023-11-22T01:01:25;4.18;;;2.65;;
20336;SDS011;10326;53.660;10.200;2023-11-22T01:03:54;3.17;;;2.67;;
20336;SDS011;10326;53.660;10.200;2023-11-22T01:06:21;3.67;;;2.73;;
20336;SDS011;10326;53.660;10.200;2023-11-22T01:08:48;2.67;;;2.47;;
20336;SDS011;10326;53.660;10.200;2023-11-22T01:11:16;4.72;;;2.97;;
20336;SDS011;10326;53.660;10.200;2023-11-22T01:13:43;2.90;;;2.60;;
20336;SDS011;10326;53.660;10.200;2023-11-22T01:16:11;4.23;;;2.80;;
20336;SDS011;10326;53.660;10.200;2023-11-22T01:18:39;3.45;;;2.88;;
20336;SDS011;10326;53.660;10.200;2023-11-22T01:21:07;4.35;;;3.10;;
20336;SDS011;10326;53.660;10.200;2023-11-22T01:23:34;3.53;;;2.87;;
20336;SDS011;10326;53.660;10.200;2023-11-22T01:26:01;4.17;;;3.13;;
20336;SDS011;10326;53.660;10.200;2023-11-22T01:28:30;3.10;;;2.90;;
20336;SDS011;10326;53.660;10.200;2023-11-22T01:30:59;3.27;;;2.97;;
20336;SDS011;10326;53.660;10.200;2023-11-22T01:33:27;3.37;;;3.03;;
20336;SDS011;10326;53.660;10.200;2023-11-22T01:35:54;3.30;;;3.00;;
20336;SDS011;10326;53.660;10.200;2023-11-22T01:38:22;3.15;;;2.85;;
20336;SDS011;10326;53.660;10.200;2023-11-22T01:40:50;3.50;;;2.87;;
20336;SDS011;10326;53.660;10.200;2023-11-22T01:43:18;3.42;;;3.13;;
20336;SDS011;10326;53.660;10.200;2023-11-22T01:45:49;3.13;;;2.80;;
20336;SDS011;10326;53.660;10.200;2023-11-22T01:48:16;4.80;;;2.90;;
20336;SDS011;10326;53.660;10.200;2023-11-22T01:50:43;3.17;;;2.83;;
20336;SDS011;10326;53.660;10.200;2023-11-22T01:53:11;3.10;;;2.80;;
20336;SDS011;10326;53.660;10.200;2023-11-22T01:55:42;3.30;;;2.93;;
20336;SDS011;10326;53.660;10.200;2023-11-22T01:58:11;3.20;;;2.90;;
20336;SDS011;10326;53.660;10.200;2023-11-22T02:00:42;3.30;;;3.00;;
20336;SDS011;10326;53.660;10.200;2023-11-22T02:03:12;4.20;;;3.07;;
20336;SDS011;10326;53.660;10.200;2023-11-22T02:05:41;3.17;;;2.83;;
20336;SDS011;10326;53.660;10.200;2023-11-22T02:08:09;3.40;;;3.10;;
20336;SDS011;10326;53.660;10.200;2023-11-22T02:10:36;4.77;;;3.23;;
20336;SDS011;10326;53.660;10.200;2023-11-22T02:13:05;3.60;;;2.80;;
20336;SDS011;10326;53.660;10.200;2023-11-22T02:15:33;3.40;;;3.10;;
20336;SDS011;10326;53.660;10.200;2023-11-22T02:18:01;3.20;;;2.90;;
20336;SDS011;10326;53.660;10.200;2023-11-22T02:20:29;6.33;;;3.17;;
20336;SDS011;10326;53.660;10.200;2023-11-22T02:22:57;3.67;;;3.37;;
20336;SDS011;10326;53.660;10.200;2023-11-22T02:25:30;3.40;;;3.10;;
20336;SDS011;10326;53.660;10.200;2023-11-22T02:27:57;4.13;;;3.00;;
20336;SDS011;10326;53.660;10.200;2023-11-22T02:30:24;3.80;;;2.87;;
20336;SDS011;10326;53.660;10.200;2023-11-22T02:32:51;3.70;;;3.30;;
20336;SDS011;10326;53.660;10.200;2023-11-22T02:35:19;4.50;;;3.37;;
20336;SDS011;10326;53.660;10.200;2023-11-22T02:37:46;3.40;;;3.10;;
20336;SDS011;10326;53.660;10.200;2023-11-22T02:40:16;3.33;;;3.03;;
20336;SDS011;10326;53.660;10.200;2023-11-22T02:42:45;3.40;;;3.10;;
20336;SDS011;10326;53.660;10.200;2023-11-22T02:45:13;3.00;;;2.80;;
20336;SDS011;10326;53.660;10.200;2023-11-22T02:47:41;3.20;;;2.97;;
20336;SDS011;10326;53.660;10.200;2023-11-22T02:50:11;3.97;;;2.80;;
20336;SDS011;10326;53.660;10.200;2023-11-22T02:52:39;3.17;;;2.90;;
20336;SDS011;10326;53.660;10.200;2023-11-22T02:55:07;3.00;;;2.70;;
20336;SDS011;10326;53.660;10.200;2023-11-22T02:57:37;3.40;;;2.70;;
20336;SDS011;10326;53.660;10.200;2023-11-22T03:00:06;3.00;;;2.70;;
20336;SDS011;10326;53.660;10.200;2023-11-22T03:02:38;3.00;;;2.70;;
20336;SDS011;10326;53.660;10.200;2023-11-22T03:05:07;3.03;;;2.73;;
20336;SDS011;10326;53.660;10.200;2023-11-22T03:07:34;2.87;;;2.63;;
20336;SDS011;10326;53.660;10.200;2023-11-22T03:10:02;2.70;;;2.50;;
20336;SDS011;10326;53.660;10.200;2023-11-22T03:12:47;3.20;;;2.90;;
20336;SDS011;10326;53.660;10.200;2023-11-22T03:15:14;4.17;;;3.00;;
20336;SDS011;10326;53.660;10.200;2023-11-22T03:17:41;3.60;;;3.10;;
20336;SDS011;10326;53.660;10.200;2023-11-22T03:20:09;3.20;;;2.90;;
20336;SDS011;10326;53.660;10.200;2023-11-22T03:22:37;3.30;;;2.90;;
20336;SDS011;10326;53.660;10.200;2023-11-22T03:25:05;3.23;;;3.03;;
20336;SDS011;10326;53.660;10.200;2023-11-22T03:27:35;3.20;;;2.97;;
20336;SDS011;10326;53.660;10.200;2023-11-22T03:30:04;3.90;;;3.20;;
20336;SDS011;10326;53.660;10.200;2023-11-22T03:32:36;2.90;;;2.67;;
20336;SDS011;10326;53.660;10.200;2023-11-22T03:35:05;4.40;;;3.30;;
20336;SDS011;10326;53.660;10.200;2023-11-22T03:37:33;3.60;;;3.30;;
20336;SDS011;10326;53.660;10.200;2023-11-22T03:40:00;2.83;;;2.63;;
20336;SDS011;10326;53.660;10.200;2023-11-22T03:42:29;3.30;;;3.00;;
20336;SDS011;10326;53.660;10.200;2023-11-22T03:44:56;3.40;;;3.10;;
20336;SDS011;10326;53.660;10.200;2023-11-22T03:47:26;3.63;;;2.90;;
20336;SDS011;10326;53.660;10.200;2023-11-22T03:49:53;3.53;;;3.23;;
20336;SDS011;10326;53.660;10.200;2023-11-22T03:52:20;3.30;;;3.00;;
20336;SDS011;10326;53.660;10.200;2023-11-22T03:54:47;3.40;;;3.10;;
20336;SDS011;10326;53.660;10.200;2023-11-22T03:57:15;3.80;;;3.43;;
20336;SDS011;10326;53.660;10.200;2023-11-22T03:59:42;3.47;;;3.10;;
20336;SDS011;10326;53.660;10.200;2023-11-22T04:02:09;3.33;;;3.00;;
20336;SDS011;10326;53.660;10.200;2023-11-22T04:04:38;3.97;;;3.47;;
20336;SDS011;10326;53.660;10.200;2023-11-22T04:07:06;3.70;;;3.30;;
20336;SDS011;10326;53.660;10.200;2023-11-22T04:09:33;3.90;;;3.50;;
20336;SDS011;10326;53.660;10.200;2023-11-22T04:12:00;3.27;;;2.97;;
20336;SDS011;10326;53.660;10.200;2023-11-22T04:14:29;3.70;;;3.40;;
20336;SDS011;10326;53.660;10.200;2023-11-22T04:16:56;4.80;;;3.10;;
20336;SDS011;10326;53.660;10.200;2023-11-22T04:19:23;3.50;;;3.20;;
20336;SDS011;10326;53.660;10.200;2023-11-22T04:21:51;3.70;;;3.40;;
20336;SDS011;10326;53.660;10.200;2023-11-22T04:24:19;3.37;;;3.07;;
20336;SDS011;10326;53.660;10.200;2023-11-22T04:26:46;3.50;;;3.20;;
20336;SDS011;10326;53.660;10.200;2023-11-22T04:29:13;3.97;;;3.57;;
20336;SDS011;10326;53.660;10.200;2023-11-22T04:31:41;3.67;;;3.37;;
20336;SDS011;10326;53.660;10.200;2023-11-22T04:34:08;3.57;;;3.27;;
20336;SDS011;10326;53.660;10.200;2023-11-22T04:36:35;3.30;;;3.00;;
20336;SDS011;10326;53.660;10.200;2023-11-22T04:39:05;3.83;;;3.20;;
20336;SDS011;10326;53.660;10.200;2023-11-22T04:41:33;3.97;;;3.07;;
20336;SDS011;10326;53.660;10.200;2023-11-22T04:44:00;3.53;;;3.20;;
20336;SDS011;10326;53.660;10.200;2023-11-22T04:46:28;3.80;;;3.50;;
20336;SDS011;10326;53.660;10.200;2023-11-22T04:48:55;3.53;;;3.10;;
20336;SDS011;10326;53.660;10.200;2023-11-22T04:51:22;3.93;;;3.23;;
20336;SDS011;10326;53.660;10.200;2023-11-22T04:53:50;2.93;;;2.73;;
20336;SDS011;10326;53.660;10.200;2023-11-22T04:56:18;3.27;;;2.97;;
20336;SDS011;10326;53.660;10.200;2023-11-22T04:58:46;3.33;;;3.03;;
20336;SDS011;10326;53.660;10.200;2023-11-22T05:01:13;3.63;;;3.33;;
20336;SDS011;10326;53.660;10.200;2023-11-22T05:03:40;3.60;;;3.30;;
20336;SDS011;10326;53.660;10.200;2023-11-22T05:06:08;3.50;;;2.97;;
20336;SDS011;10326;53.660;10.200;2023-11-22T05:08:35;3.37;;;3.07;;
20336;SDS011;10326;53.660;10.200;2023-11-22T05:11:02;3.93;;;3.50;;
20336;SDS011;10326;53.660;10.200;2023-11-22T05:13:31;3.40;;;3.10;;
20336;SDS011;10326;53.660;10.200;2023-11-22T05:15:58;3.90;;;3.30;;
20336;SDS011;10326;53.660;10.200;2023-11-22T05:18:26;3.70;;;3.40;;
20336;SDS011;10326;53.660;10.200;2023-11-22T05:20:54;3.50;;;3.20;;
20336;SDS011;10326;53.660;10.200;2023-11-22T05:23:21;3.73;;;3.10;;
20336;SDS011;10326;53.660;10.200;2023-11-22T05:25:48;3.90;;;3.50;;
20336;SDS011;10326;53.660;10.200;2023-11-22T05:28:15;5.83;;;3.67;;
20336;SDS011;10326;53.660;10.200;2023-11-22T05:30:44;3.73;;;3.40;;
20336;SDS011;10326;53.660;10.200;2023-11-22T05:33:11;4.50;;;3.40;;
20336;SDS011;10326;53.660;10.200;2023-11-22T05:35:38;4.83;;;3.40;;
20336;SDS011;10326;53.660;10.200;2023-11-22T05:38:06;3.83;;;3.50;;
20336;SDS011;10326;53.660;10.200;2023-11-22T05:40:33;4.30;;;3.90;;
20336;SDS011;10326;53.660;10.200;2023-11-22T05:43:01;4.57;;;3.90;;
20336;SDS011;10326;53.660;10.200;2023-11-22T05:45:28;4.00;;;3.70;;
20336;SDS011;10326;53.660;10.200;2023-11-22T05:47:57;3.80;;;3.40;;
20336;SDS011;10326;53.660;10.200;2023-11-22T05:50:24;3.70;;;3.40;;
20336;SDS011;10326;53.660;10.200;2023-11-22T05:52:51;4.87;;;3.87;;
20336;SDS011;10326;53.660;10.200;2023-11-22T05:55:18;4.00;;;3.60;;
20336;SDS011;10326;53.660;10.200;2023-11-22T05:57:46;5.10;;;3.73;;
20336;SDS011;10326;53.660;10.200;2023-11-22T06:00:13;4.27;;;3.87;;
20336;SDS011;10326;53.660;10.200;2023-11-22T06:02:41;4.27;;;3.40;;
20336;SDS011;10326;53.660;10.200;2023-11-22T06:05:09;4.73;;;3.90;;
20336;SDS011;10326;53.660;10.200;2023-11-22T06:07:36;5.20;;;3.70;;
20336;SDS011;10326;53.660;10.200;2023-11-22T06:10:04;3.90;;;3.50;;
20336;SDS011;10326;53.660;10.200;2023-11-22T06:12:32;4.47;;;3.80;;
20336;SDS011;10326;53.660;10.200;2023-11-22T06:14:59;4.20;;;3.80;;
20336;SDS011;10326;53.660;10.200;2023-11-22T06:17:26;4.50;;;4.10;;
20336;SDS011;10326;53.660;10.200;2023-11-22T06:19:54;4.53;;;3.87;;
20336;SDS011;10326;53.660;10.200;2023-11-22T06:22:23;5.70;;;4.10;;
20336;SDS011;10326;53.660;10.200;2023-11-22T06:24:50;4.53;;;4.13;;
20336;SDS011;10326;53.660;10.200;2023-11-22T06:27:17;5.63;;;4.57;;
20336;SDS011;10326;53.660;10.200;2023-11-22T06:29:45;5.10;;;4.60;;
20336;SDS011;10326;53.660;10.200;2023-11-22T06:32:12;6.87;;;4.13;;
20336;SDS011;10326;53.660;10.200;2023-11-22T06:34:40;5.73;;;4.80;;
20336;SDS011;10326;53.660;10.200;2023-11-22T06:37:08;6.10;;;4.90;;
20336;SDS011;10326;53.660;10.200;2023-11-22T06:39:36;5.40;;;4.90;;
20336;SDS011;10326;53.660;10.200;2023-11-22T06:42:04;6.67;;;5.57;;
20336;SDS011;10326;53.660;10.200;2023-11-22T06:44:31;6.27;;;5.67;;
20336;SDS011;10326;53.660;10.200;2023-11-22T06:46:59;6.27;;;5.73;;
20336;SDS011;10326;53.660;10.200;2023-11-22T06:49:27;6.67;;;6.00;;
20336;SDS011;10326;53.660;10.200;2023-11-22T06:51:54;5.83;;;5.17;;
20336;SDS011;10326;53.660;10.200;2023-11-22T06:54:21;4.77;;;4.37;;
20336;SDS011;10326;53.660;10.200;2023-11-22T06:56:49;4.93;;;4.43;;
20336;SDS011;10326;53.660;10.200;2023-11-22T06:59:17;4.90;;;4.40;;
20336;SDS011;10326;53.660;10.200;2023-11-22T07:01:44;4.03;;;3.73;;
20336;SDS011;10326;53.660;10.200;2023-11-22T07:04:12;4.70;;;4.20;;
20336;SDS011;10326;53.660;10.200;2023-11-22T07:06:39;5.07;;;4.60;;
20336;SDS011;10326;53.660;10.200;2023-11-22T07:09:07;4.23;;;3.83;;
20336;SDS011;10326;53.660;10.200;2023-11-22T07:11:35;4.77;;;4.30;;
20336;SDS011;10326;53.660;10.200;2023-11-22T07:14:04;5.30;;;4.30;;
20336;SDS011;10326;53.660;10.200;2023-11-22T07:16:31;5.33;;;4.83;;
20336;SDS011;10326;53.660;10.200;2023-11-22T07:18:58;5.20;;;4.40;;
20336;SDS011;10326;53.660;10.200;2023-11-22T07:21:28;4.83;;;4.43;;
20336;SDS011;10326;53.660;10.200;2023-11-22T07:23:56;5.80;;;4.33;;
20336;SDS011;10326;53.660;10.200;2023-11-22T07:26:24;4.80;;;4.27;;
20336;SDS011;10326;53.660;10.200;2023-11-22T07:28:52;4.77;;;4.37;;
20336;SDS011;10326;53.660;10.200;2023-11-22T07:31:21;5.50;;;4.33;;
20336;SDS011;10326;53.660;10.200;2023-11-22T07:33:48;5.67;;;4.83;;
20336;SDS011;10326;53.660;10.200;2023-11-22T07:36:15;5.73;;;5.13;;
20336;SDS011;10326;53.660;10.200;2023-11-22T07:38:42;5.73;;;4.80;;
20336;SDS011;10326;53.660;10.200;2023-11-22T07:41:10;5.30;;;4.70;;
20336;SDS011;10326;53.660;10.200;2023-11-22T07:43:38;5.57;;;4.90;;
20336;SDS011;10326;53.660;10.200;2023-11-22T07:46:05;5.07;;;4.57;;
20336;SDS011;10326;53.660;10.200;2023-11-22T07:48:38;5.40;;;4.77;;
20336;SDS011;10326;53.660;10.200;2023-11-22T07:51:07;5.97;;;5.40;;
20336;SDS011;10326;53.660;10.200;2023-11-22T07:53:34;5.77;;;5.17;;
20336;SDS011;10326;53.660;10.200;2023-11-22T07:56:02;6.40;;;5.37;;
20336;SDS011;10326;53.660;10.200;2023-11-22T07:58:29;5.90;;;5.30;;
20336;SDS011;10326;53.660;10.200;2023-11-22T08:00:58;6.00;;;5.40;;
20336;SDS011;10326;53.660;10.200;2023-11-22T08:03:25;5.93;;;5.33;;
20336;SDS011;10326;53.660;10.200;2023-11-22T08:05:53;5.47;;;4.60;;
20336;SDS011;10326;53.660;10.200;2023-11-22T08:08:20;7.63;;;5.07;;
20336;SDS011;10326;53.660;10.200;2023-11-22T08:10:48;5.63;;;5.10;;
20336;SDS011;10326;53.660;10.200;2023-11-22T08:13:18;5.83;;;5.00;;
20336;SDS011;10326;53.660;10.200;2023-11-22T08:15:48;5.30;;;4.80;;
20336;SDS011;10326;53.660;10.200;2023-11-22T08:18:15;5.53;;;4.70;;
20336;SDS011;10326;53.660;10.200;2023-11-22T08:20:42;4.80;;;4.30;;
20336;SDS011;10326;53.660;10.200;2023-11-22T08:23:11;5.17;;;4.47;;
20336;SDS011;10326;53.660;10.200;2023-11-22T08:25:40;5.10;;;4.60;;
20336;SDS011;10326;53.660;10.200;2023-11-22T08:28:06;4.97;;;4.50;;
20336;SDS011;10326;53.660;10.200;2023-11-22T08:30:33;5.37;;;4.97;;
20336;SDS011;10326;53.660;10.200;2023-11-22T08:33:01;5.40;;;4.90;;
20336;SDS011;10326;53.660;10.200;2023-11-22T08:35:28;5.53;;;5.03;;
20336;SDS011;10326;53.660;10.200;2023-11-22T08:37:55;5.80;;;5.20;;
20336;SDS011;10326;53.660;10.200;2023-11-22T08:40:25;6.23;;;5.07;;
20336;SDS011;10326;53.660;10.200;2023-11-22T08:42:52;5.33;;;4.83;;
20336;SDS011;10326;53.660;10.200;2023-11-22T08:45:19;5.43;;;4.93;;
20336;SDS011;10326;53.660;10.200;2023-11-22T08:47:47;6.63;;;4.77;;
20336;SDS011;10326;53.660;10.200;2023-11-22T08:50:16;7.03;;;5.27;;
20336;SDS011;10326;53.660;10.200;2023-11-22T08:52:45;6.57;;;5.00;;
20336;SDS011;10326;53.660;10.200;2023-11-22T08:55:12;8.20;;;5.37;;
20336;SDS011;10326;53.660;10.200;2023-11-22T08:57:41;6.33;;;5.23;;
20336;SDS011;10326;53.660;10.200;2023-11-22T09:00:08;5.77;;;5.17;;
20336;SDS011;10326;53.660;10.200;2023-11-22T09:02:39;5.83;;;5.33;;
20336;SDS011;10326;53.660;10.200;2023-11-22T09:05:07;6.23;;;5.63;;
20336;SDS011;10326;53.660;10.200;2023-11-22T09:07:34;6.40;;;5.47;;
20336;SDS011;10326;53.660;10.200;2023-11-22T09:10:03;6.33;;;5.23;;
20336;SDS011;10326;53.660;10.200;2023-11-22T09:12:35;6.80;;;5.63;;
20336;SDS011;10326;53.660;10.200;2023-11-22T09:15:06;5.93;;;5.43;;
20336;SDS011;10326;53.660;10.200;2023-11-22T09:17:36;5.60;;;4.90;;
20336;SDS011;10326;53.660;10.200;2023-11-22T09:20:08;6.03;;;5.47;;
20336;SDS011;10326;53.660;10.200;2023-11-22T09:22:41;6.77;;;5.73;;
20336;SDS011;10326;53.660;10.200;2023-11-22T09:25:13;6.83;;;6.13;;
20336;SDS011;10326;53.660;10.200;2023-11-22T09:27:41;6.27;;;5.67;;
20336;SDS011;10326;53.660;10.200;2023-11-22T09:30:13;6.83;;;5.80;;
20336;SDS011;10326;53.660;10.200;2023-11-22T09:32:57;8.20;;;5.53;;
20336;SDS011;10326;53.660;10.200;2023-11-22T09:35:24;6.50;;;5.72;;
20336;SDS011;10326;53.660;10.200;2023-11-22T09:37:54;6.30;;;5.70;;
20336;SDS011;10326;53.660;10.200;2023-11-22T09:40:22;7.10;;;6.40;;
20336;SDS011;10326;53.660;10.200;2023-11-22T09:42:49;6.70;;;5.60;;
20336;SDS011;10326;53.660;10.200;2023-11-22T09:45:19;6.57;;;5.88;;
20336;SDS011;10326;53.660;10.200;2023-11-22T09:47:47;6.47;;;5.87;;
20336;SDS011;10326;53.660;10.200;2023-11-22T09:50:19;7.07;;;6.27;;
20336;SDS011;10326;53.660;10.200;2023-11-22T09:52:51;7.53;;;6.13;;
20336;SDS011;10326;53.660;10.200;2023-11-22T09:55:20;7.82;;;6.72;;
20336;SDS011;10326;53.660;10.200;2023-11-22T09:57:48;7.07;;;6.38;;
20336;SDS011;10326;53.660;10.200;2023-11-22T10:00:17;6.68;;;6.00;;
20336;SDS011;10326;53.660;10.200;2023-11-22T10:02:47;7.15;;;6.45;;
20336;SDS011;10326;53.660;10.200;2023-11-22T10:05:15;7.32;;;6.57;;
20336;SDS011;10326;53.660;10.200;2023-11-22T10:07:45;6.32;;;5.70;;
20336;SDS011;10326;53.660;10.200;2023-11-22T10:10:13;6.90;;;6.20;;
20336;SDS011;10326;53.660;10.200;2023-11-22T10:12:43;8.52;;;6.30;;
20336;SDS011;10326;53.660;10.200;2023-11-22T10:15:12;6.82;;;6.07;;
20336;SDS011;10326;53.660;10.200;2023-11-22T10:17:42;6.88;;;6.05;;
20336;SDS011;10326;53.660;10.200;2023-11-22T10:20:22;6.75;;;6.05;;
20336;SDS011;10326;53.660;10.200;2023-11-22T10:22:58;6.63;;;5.97;;
20336;SDS011;10326;53.660;10.200;2023-11-22T10:26:00;6.70;;;6.07;;
20336;SDS011;10326;53.660;10.200;2023-11-22T10:28:33;6.30;;;5.70;;
20336;SDS011;10326;53.660;10.200;2023-11-22T10:31:04;6.32;;;5.80;;
20336;SDS011;10326;53.660;10.200;2023-11-22T10:33:36;6.90;;;5.53;;
20336;SDS011;10326;53.660;10.200;2023-11-22T10:36:07;6.20;;;5.60;;
20336;SDS011;10326;53.660;10.200;2023-11-22T10:38:34;6.20;;;5.60;;
20336;SDS011;10326;53.660;10.200;2023-11-22T10:41:03;7.45;;;5.63;;
20336;SDS011;10326;53.660;10.200;2023-11-22T10:43:31;6.95;;;6.25;;
20336;SDS011;10326;53.660;10.200;2023-11-22T10:46:00;6.22;;;5.40;;
20336;SDS011;10326;53.660;10.200;2023-11-22T10:48:28;6.10;;;5.45;;
20336;SDS011;10326;53.660;10.200;2023-11-22T10:50:58;6.80;;;5.55;;
20336;SDS011;10326;53.660;10.200;2023-11-22T10:53:31;5.65;;;5.15;;
20336;SDS011;10326;53.660;10.200;2023-11-22T10:56:03;6.72;;;5.80;;
20336;SDS011;10326;53.660;10.200;2023-11-22T10:58:36;6.60;;;6.00;;
20336;SDS011;10326;53.660;10.200;2023-11-22T11:01:14;6.22;;;5.60;;
20336;SDS011;10326;53.660;10.200;2023-11-22T11:03:45;5.90;;;5.30;;
20336;SDS011;10326;53.660;10.200;2023-11-22T11:06:23;5.82;;;5.32;;
20336;SDS011;10326;53.660;10.200;2023-11-22T11:08:57;5.97;;;5.28;;
20336;SDS011;10326;53.660;10.200;2023-11-22T11:11:30;5.05;;;4.55;;
20336;SDS011;10326;53.660;10.200;2023-11-22T11:13:59;4.95;;;4.45;;
20336;SDS011;10326;53.660;10.200;2023-11-22T11:16:28;5.28;;;4.38;;
20336;SDS011;10326;53.660;10.200;2023-11-22T11:18:59;4.30;;;3.90;;
20336;SDS011;10326;53.660;10.200;2023-11-22T11:21:29;4.35;;;3.95;;
20336;SDS011;10326;53.660;10.200;2023-11-22T11:23:59;5.03;;;4.07;;
20336;SDS011;10326;53.660;10.200;2023-11-22T11:26:28;4.20;;;3.80;;
20336;SDS011;10326;53.660;10.200;2023-11-22T11:29:00;4.57;;;3.90;;
20336;SDS011;10326;53.660;10.200;2023-11-22T11:31:30;4.68;;;4.07;;
20336;SDS011;10326;53.660;10.200;2023-11-22T11:34:00;4.38;;;3.97;;
20336;SDS011;10326;53.660;10.200;2023-11-22T11:36:29;4.55;;;4.15;;
20336;SDS011;10326;53.660;10.200;2023-11-22T11:38:58;5.60;;;4.30;;
20336;SDS011;10326;53.660;10.200;2023-11-22T11:41:28;4.63;;;4.15;;
20336;SDS011;10326;53.660;10.200;2023-11-22T11:43:58;4.20;;;3.70;;
20336;SDS011;10326;53.660;10.200;2023-11-22T11:46:28;4.13;;;3.78;;
20336;SDS011;10326;53.660;10.200;2023-11-22T11:48:56;4.07;;;3.67;;
20336;SDS011;10326;53.660;10.200;2023-11-22T11:51:24;4.40;;;3.63;;
20336;SDS011;10326;53.660;10.200;2023-11-22T11:53:54;6.10;;;3.42;;
20336;SDS011;10326;53.660;10.200;2023-11-22T11:56:21;3.47;;;3.17;;
20336;SDS011;10326;53.660;10.200;2023-11-22T11:58:51;4.05;;;3.33;;
20336;SDS011;10326;53.660;10.200;2023-11-22T12:01:24;3.47;;;3.17;;
20336;SDS011;10326;53.660;10.200;2023-11-22T12:03:51;3.38;;;3.08;;
20336;SDS011;10326;53.660;10.200;2023-11-22T12:06:19;3.80;;;3.50;;
20336;SDS011;10326;53.660;10.200;2023-11-22T12:08:46;3.60;;;2.90;;
20336;SDS011;10326;53.660;10.200;2023-11-22T12:11:15;2.80;;;2.60;;
20336;SDS011;10326;53.660;10.200;2023-11-22T12:13:43;3.85;;;3.00;;
20336;SDS011;10326;53.660;10.200;2023-11-22T12:16:13;3.75;;;3.40;;
20336;SDS011;10326;53.660;10.200;2023-11-22T12:18:42;3.30;;;3.00;;
20336;SDS011;10326;53.660;10.200;2023-11-22T12:21:11;3.35;;;2.78;;
20336;SDS011;10326;53.660;10.200;2023-11-22T12:23:39;2.42;;;2.22;;
20336;SDS011;10326;53.660;10.200;2023-11-22T12:26:09;3.50;;;3.20;;
20336;SDS011;10326;53.660;10.200;2023-11-22T12:28:40;3.50;;;3.20;;
20336;SDS011;10326;53.660;10.200;2023-11-22T12:31:08;3.05;;;2.70;;
20336;SDS011;10326;53.660;10.200;2023-11-22T12:33:37;3.15;;;2.92;;
20336;SDS011;10326;53.660;10.200;2023-11-22T12:36:06;3.40;;;3.10;;
20336;SDS011;10326;53.660;10.200;2023-11-22T12:38:35;3.63;;;2.88;;
20336;SDS011;10326;53.660;10.200;2023-11-22T12:41:02;3.03;;;2.78;;
20336;SDS011;10326;53.660;10.200;2023-11-22T12:43:32;3.58;;;3.08;;
20336;SDS011;10326;53.660;10.200;2023-11-22T12:46:01;2.80;;;2.60;;
20336;SDS011;10326;53.660;10.200;2023-11-22T12:48:31;3.20;;;2.90;;
20336;SDS011;10326;53.660;10.200;2023-11-22T12:51:01;3.08;;;2.88;;
20336;SDS011;10326;53.660;10.200;2023-11-22T12:53:28;3.10;;;2.80;;
20336;SDS011;10326;53.660;10.200;2023-11-22T12:55:55;2.85;;;2.55;;
20336;SDS011;10326;53.660;10.200;2023-11-22T12:58:24;3.63;;;2.80;;
20336;SDS011;10326;53.660;10.200;2023-11-22T13:00:53;3.35;;;2.80;;
20336;SDS011;10326;53.660;10.200;2023-11-22T13:03:27;4.00;;;3.60;;
20336;SDS011;10326;53.660;10.200;2023-11-22T13:05:54;3.97;;;3.20;;
20336;SDS011;10326;53.660;10.200;2023-11-22T13:08:22;3.72;;;2.97;;
20336;SDS011;10326;53.660;10.200;2023-11-22T13:10:54;3.88;;;3.22;;
20336;SDS011;10326;53.660;10.200;2023-11-22T13:13:22;3.40;;;2.75;;
20336;SDS011;10326;53.660;10.200;2023-11-22T13:15:50;2.90;;;2.67;;
20336;SDS011;10326;53.660;10.200;2023-11-22T13:18:18;4.25;;;2.92;;
20336;SDS011;10326;53.660;10.200;2023-11-22T13:20:47;2.70;;;2.50;;
20336;SDS011;10326;53.660;10.200;2023-11-22T13:23:15;2.80;;;2.40;;
20336;SDS011;10326;53.660;10.200;2023-11-22T13:25:42;3.63;;;3.33;;
20336;SDS011;10326;53.660;10.200;2023-11-22T13:28:11;2.80;;;2.60;;
20336;SDS011;10326;53.660;10.200;2023-11-22T13:30:38;3.08;;;2.53;;
20336;SDS011;10326;53.660;10.200;2023-11-22T13:33:05;3.05;;;2.65;;
20336;SDS011;10326;53.660;10.200;2023-11-22T13:35:32;2.85;;;2.55;;
20336;SDS011;10326;53.660;10.200;2023-11-22T13:38:04;3.20;;;2.85;;
20336;SDS011;10326;53.660;10.200;2023-11-22T13:40:36;4.50;;;2.47;;
20336;SDS011;10326;53.660;10.200;2023-11-22T13:43:05;2.70;;;2.30;;
20336;SDS011;10326;53.660;10.200;2023-11-22T13:45:32;4.05;;;2.42;;
20336;SDS011;10326;53.660;10.200;2023-11-22T13:48:03;2.47;;;1.83;;
20336;SDS011;10326;53.660;10.200;2023-11-22T13:50:31;2.90;;;1.90;;
20336;SDS011;10326;53.660;10.200;2023-11-22T13:52:59;2.95;;;2.17;;
20336;SDS011;10326;53.660;10.200;2023-11-22T13:55:28;2.53;;;2.33;;
20336;SDS011;10326;53.660;10.200;2023-11-22T13:57:55;2.92;;;2.35;;
20336;SDS011;10326;53.660;10.200;2023-11-22T14:00:24;2.55;;;2.35;;
20336;SDS011;10326;53.660;10.200;2023-11-22T14:02:58;2.25;;;2.05;;
20336;SDS011;10326;53.660;10.200;2023-11-22T14:05:30;2.95;;;2.40;;
20336;SDS011;10326;53.660;10.200;2023-11-22T14:07:59;2.30;;;2.10;;
20336;SDS011;10326;53.660;10.200;2023-11-22T14:10:27;2.55;;;2.35;;
20336;SDS011;10326;53.660;10.200;2023-11-22T14:12:54;1.98;;;1.85;;
20336;SDS011;10326;53.660;10.200;2023-11-22T14:15:25;2.00;;;1.90;;
20336;SDS011;10326;53.660;10.200;2023-11-22T14:17:54;3.58;;;1.85;;
20336;SDS011;10326;53.660;10.200;2023-11-22T14:20:21;2.10;;;1.90;;
20336;SDS011;10326;53.660;10.200;2023-11-22T14:22:49;2.42;;;1.92;;
20336;SDS011;10326;53.660;10.200;2023-11-22T14:25:17;2.30;;;2.00;;
20336;SDS011;10326;53.660;10.200;2023-11-22T14:27:46;1.90;;;1.80;;
20336;SDS011;10326;53.660;10.200;2023-11-22T14:30:17;2.10;;;1.90;;
20336;SDS011;10326;53.660;10.200;2023-11-22T14:32:46;4.10;;;2.03;;
20336;SDS011;10326;53.660;10.200;2023-11-22T14:35:14;4.05;;;2.38;;
20336;SDS011;10326;53.660;10.200;2023-11-22T14:37:41;2.22;;;2.00;;
20336;SDS011;10326;53.660;10.200;2023-11-22T14:40:10;1.85;;;1.75;;
20336;SDS011;10326;53.660;10.200;2023-11-22T14:42:40;2.25;;;1.80;;